Aparecida, Brazil
Current Conditions -  °F | °C
As of 11:00 AM on Monday 24 Nov 2014 (Local Time) from SBGW Reporting Station
Broken Clouds Broken Clouds  
Wind Chill: 77°   Ceiling: 2000
Heat Index: 79°   Visibility: 4mi
Dew Point: 66°   Wind: 5mph
Humidity: 69%   Direction: 40°NE
Pressure: 30.06"   Gusts: NA
Location:  22.85°S, 45.23°W
Report Text: SBGW 241300Z 04004KT 6000 FEW009 BKN020 BKN050 25/19 Q1018
Loading
Personal Weather Stations






























Interactive Weather Map New forecast layout! Learn more

10-Day Weather Forecast

Advertisements
Track Severe Weather on mobile